Howe, IN (46746)

3:13 PM EDT on May 28, 2017 (GMT -0400)
Scott | | Change Station
Active Advisory: Severe Thunderstorm Watch

Elev 892 ft 41.74 °N, 85.54 °W | Updated 4 seconds ago

Overcast
Overcast
73.4 °F
Feels Like 73 °F
N
3.0
Wind Variable Wind from SSE

Today
High -- | Low -- °F
--% Chance of Precip.
Yesterday
High -- | Low -- °F
Precip. -- in
Pressure 29.69 in
Visibility 10.0 miles
Clouds Mostly Cloudy 7000 ft
Heat Index 73 °F
Dew Point 68 °F
Humidity 83%
Rainfall 0.12 in
Snow Depth Not available.
6:11 AM 9:06 PM
Waxing Crescent, 13% visible
METAR KIRS 281855Z AUTO 00000KT 10SM -RA BKN070 19/17 A2969 RMK AO2 P0025 T01910165
Pressure 29.69 in
Visibility 10.0 miles
Clouds Mostly Cloudy 7000 ft
Heat Index 73 °F
Dew Point 68 °F
Humidity 83%
Rainfall 0.12 in
Snow Depth Not available.
6:11 AM 9:06 PM
Waxing Crescent, 13% visible
METAR KIRS 281855Z AUTO 00000KT 10SM -RA BKN070 19/17 A2969 RMK AO2 P0025 T01910165

Get Your Daily Forecast Email!

Thanks for signing up!

Be on the lookout for a verification email in your inbox.

You'll start receiving severe weather alerts in your inbox..

×

10-Day Weather Forecast

Almanac

Astronomy

May. 28, 2017 Rise Set
Actual Time
Civil Twilight
Nautical Twilight
Astronomical Twilight
Moon
Length of Visible Light
Length of Day
Tomorrow will be .
, % of the Moon is Illuminated

Today's Extremes

State Highs State Lows

Community

WunderPhotos

Category 6

Welcome to Category 6. This is the collective home for Weather Underground's featured writeups by Dr. Jeff Masters (right), Bob Henson (left), Chris Burt, and other regular contributors.

Nearby

Air Quality

  Air Quality AQ Index Pollutant
Not available.

Snow Depth

Station Depth Elevation

Earthquake Activity

City Distance Mag. Time & Date
Minimum magnitude displayed is 2.5.

Coastal Water Temperatures

Place Temperature

Stations

Nearby Weather Stations

Station Location Temp. Windchill Dew Point Humidity Wind Precip. Elev Updated Type
                   

Watches & Warnings

Severe Thunderstorm Watch
Issued: 3:03 PM EDT May. 28, 2017 – National Weather Service

Severe Thunderstorm Watch 292 remains in effect until 800 PM EDT
for the following locations


In
. Indiana counties included are

Adams Allen Blackford
Cass De Kalb Elkhart
Fulton Grant Huntington
Jay Kosciusko LaGrange
Marshall Miami Noble
Pulaski St. Joseph Starke
Steuben Wabash Wells
white Whitley